• Join FlightAware (Why Join?)
  • Login
  • US Flag 
03:50PM EDT


 

Airport Tracker/Info


-or-


 

Live Flight TrackerFlight Track Log ✈ UPS1121 ✈ 15-May-2013 ✈ KBDL - KPHL

Flight Track Log - Related Links

Times and Time Zones

All times are in EDT time to prevent confusion due to time zone crossing. See the UPS1121 flight status page for this flight to view local times or setup timezone preferences in your user account.

Time Position Orientation Groundspeed Altitude Reporting Facility
EDT Latitude Longitude Course Direction KTS MPH feet Rate Location/Type
09:55PM 41.9292 -72.7025 224° Southwest 150 173 1,200  Level Boston Center
09:56PM 41.9081 -72.7303 224° Southwest 151 174 2,800 2,400 Climbing Boston Center
09:57PM 41.8333 -72.6853 156° South 241 277 6,000 2,940 Climbing Boston Center
09:58PM 41.7583 -72.6350 153° Southeast 276 318 9,500 2,820 Climbing Boston Center
09:59PM 41.6731 -72.5736 152° Southeast 331 381 11,700 1,620 Climbing Boston Center
10:05PM 41.1410 -72.6760 152° Southeast 391 450 20,000 1,320 Climbing FlightAware
10:05PM 41.0530 -72.7270 204° Southwest 393 452 20,000  Level FlightAware
10:06PM 40.9800 -72.7700 204° Southwest 394 453 20,000  Level FlightAware
10:07PM 40.9120 -72.8120 205° Southwest 390 449 20,000  Level FlightAware
10:08PM 40.8410 -72.8640 209° Southwest 390 449 20,000  Level FlightAware
10:08PM 40.8134 -72.8844 209° Southwest 390 449 20,000  Level FlightAware ADS-B
10:08PM 40.7596 -72.9236 209° Southwest 390 449 20,000  Level FlightAware ADS-B
10:09PM 40.7063 -72.9630 209° Southwest 391 450 20,000  Level FlightAware ADS-B
10:10PM 40.6580 -72.9985 209° Southwest 391 450 20,000  Level FlightAware ADS-B
10:10PM 40.6101 -73.0334 209° Southwest 392 451 20,000  Level FlightAware ADS-B
10:11PM 40.5619 -73.0683 209° Southwest 392 451 20,000  Level FlightAware ADS-B
10:11PM 40.5125 -73.1040 209° Southwest 390 449 20,000  Level FlightAware ADS-B
10:12PM 40.4637 -73.1394 209° Southwest 391 450 20,000  Level FlightAware ADS-B
10:12PM 40.4095 -73.1785 209° Southwest 391 450 20,000  Level FlightAware ADS-B
10:13PM 40.3609 -73.2136 209° Southwest 392 451 20,000  Level FlightAware ADS-B
10:13PM 40.3124 -73.2485 209° Southwest 391 450 20,000  Level FlightAware ADS-B
10:14PM 40.2642 -73.2831 209° Southwest 391 450 20,000  Level FlightAware ADS-B
10:14PM 40.2125 -73.3201 209° Southwest 391 450 20,000  Level FlightAware ADS-B
10:15PM 40.1640 -73.3549 209° Southwest 390 449 20,000  Level FlightAware ADS-B
10:15PM 40.1367 -73.3751 209° Southwest 389 448 20,000 -420 Level FlightAware ADS-B
10:15PM 40.0971 -73.4122 216° Southwest 383 441 19,700 -900 Descending FlightAware ADS-B
10:16PM 40.0791 -73.4336 222° Southwest 381 438 19,400 -1,200 Descending FlightAware ADS-B
10:16PM 40.0404 -73.4832 224° Southwest 381 438 18,800 -1,020 Descending FlightAware ADS-B
10:17PM 40.0026 -73.5315 224° Southwest 377 434 18,400 -960 Descending FlightAware ADS-B
10:17PM 39.9620 -73.5836 225° Southwest 374 430 17,800 -960 Descending FlightAware ADS-B
10:18PM 39.9248 -73.6309 224° Southwest 371 427 17,400 -960 Descending FlightAware ADS-B
10:18PM 39.8825 -73.6848 224° Southwest 371 427 16,800 -1,020 Descending FlightAware ADS-B
10:19PM 39.8444 -73.7331 224° Southwest 367 422 16,300 -1,080 Descending FlightAware ADS-B
10:20PM 39.7985 -73.7910 224° Southwest 363 418 15,600 -960 Descending FlightAware ADS-B
10:20PM 39.7519 -73.8501 224° Southwest 359 413 15,100 -960 Descending FlightAware ADS-B
10:21PM 39.7155 -73.8964 224° Southwest 357 411 14,500 -900 Descending FlightAware ADS-B
10:21PM 39.6794 -73.9421 224° Southwest 352 405 14,200 -300 Descending FlightAware ADS-B
10:22PM 39.6438 -73.9869 224° Southwest 357 411 14,200  Level FlightAware ADS-B
10:22PM 39.6080 -74.0320 224° Southwest 356 410 14,200  Level FlightAware ADS-B
10:22PM 39.5995 -74.0437 227° Southwest 354 407 14,200  Level FlightAware ADS-B
10:22PM 39.5905 -74.0586 232° Southwest 349 402 14,200  Level FlightAware ADS-B
10:23PM 39.5791 -74.0844 240° Southwest 343 395 14,200  Level FlightAware ADS-B
10:23PM 39.5750 -74.0978 248° West 343 395 14,200  Level FlightAware ADS-B
10:23PM 39.5717 -74.1123 254° West 343 395 14,200  Level FlightAware ADS-B
10:23PM 39.5687 -74.1395 262° West 344 396 14,200  Level FlightAware ADS-B
10:24PM 39.5662 -74.2020 267° West 347 399 14,200  Level FlightAware ADS-B
10:24PM 39.5640 -74.2648 267° West 348 400 14,200  Level FlightAware ADS-B
10:25PM 39.5618 -74.3290 267° West 348 400 14,200 -300 Level FlightAware ADS-B
10:26PM 39.5570 -74.4510 267° West 312 359 13,800 -720 Descending FlightAware
10:26PM 39.5565 -74.4786 269° West 325 374 13,300 -2,400 Descending FlightAware ADS-B
10:26PM 39.5544 -74.5376 267° West 307 353 12,200 -2,280 Descending FlightAware ADS-B
10:27PM 39.5524 -74.5928 267° West 304 350 11,000 -1,800 Descending FlightAware ADS-B
10:27PM 39.5504 -74.6467 267° West 286 329 10,400 -900 Descending FlightAware ADS-B
10:28PM 39.5486 -74.6966 267° West 256 295 10,100 -540 Descending FlightAware ADS-B
10:28PM 39.5478 -74.7222 268° West 238 274 10,000 -300 Descending FlightAware ADS-B
10:28PM 39.5478 -74.7268 270° West 236 272 10,000 -960 Level FlightAware ADS-B
10:29PM 39.5514 -74.7495 282° West 234 269 9,700 -1,200 Descending FlightAware ADS-B
10:29PM 39.5528 -74.7550 288° West 228 262 9,600 -840 Descending FlightAware ADS-B
10:29PM 39.5673 -74.7952 295° West 229 264 9,200 -600 Descending FlightAware ADS-B
10:29PM 39.5736 -74.8040 313° West 228 262 9,200  Level FlightAware ADS-B
10:29PM 39.5769 -74.8076 320° Northwest 229 264 9,200  Level FlightAware ADS-B
10:30PM 39.5860 -74.8147 329° Northwest 232 267 9,200  Level FlightAware ADS-B
10:30PM 39.5970 -74.8218 334° Northwest 233 268 9,200  Level FlightAware ADS-B
10:30PM 39.6097 -74.8293 336° Northwest 237 273 9,200  Level FlightAware ADS-B
10:30PM 39.6232 -74.8362 339° North 237 273 9,200  Level FlightAware ADS-B
10:31PM 39.6388 -74.8439 339° North 235 270 9,200 -600 Level FlightAware ADS-B
10:31PM 39.6543 -74.8516 339° North 232 267 8,900 -1,800 Descending FlightAware ADS-B
10:31PM 39.6697 -74.8592 339° North 235 270 8,300 -2,340 Descending FlightAware ADS-B
10:31PM 39.6852 -74.8670 339° North 237 273 7,700 -1,980 Descending FlightAware ADS-B
10:31PM 39.6977 -74.8733 339° North 238 274 7,400 -1,800 Descending FlightAware ADS-B
10:32PM 39.7132 -74.8810 339° North 240 276 6,900 -1,800 Descending FlightAware ADS-B
10:32PM 39.7291 -74.8887 340° North 240 276 6,500 -1,800 Descending FlightAware ADS-B
10:32PM 39.7451 -74.8964 340° North 240 276 6,000 -1,980 Descending FlightAware ADS-B
10:32PM 39.7616 -74.9043 340° North 243 280 5,500 -1,980 Descending FlightAware ADS-B
10:33PM 39.7810 -74.9135 340° North 244 281 4,900 -1,920 Descending FlightAware ADS-B
10:33PM 39.7848 -74.9150 343° North 246 283 4,800 -2,280 Descending FlightAware ADS-B
10:33PM 39.7900 -74.9163 349° North 248 285 4,600 -2,280 Descending FlightAware ADS-B
10:33PM 39.7932 -74.9167 355° North 250 288 4,500 -1,740 Descending FlightAware ADS-B
10:33PM 39.7983 -74.9169 358° North 253 291 4,400 -1,380 Descending FlightAware ADS-B
10:33PM 39.8039 -74.9166 North 254 292 4,300 -660 Descending FlightAware ADS-B
10:33PM 39.8204 -74.9146 North 252 290 4,200 -240 Descending FlightAware ADS-B
10:34PM 39.8379 -74.9122 North 242 278 4,200 -420 Level FlightAware ADS-B
10:34PM 39.8555 -74.9097 North 238 274 4,000 -1,200 Descending FlightAware ADS-B
10:34PM 39.8719 -74.9074 North 240 276 3,600 -1,680 Descending FlightAware ADS-B
10:34PM 39.8788 -74.9066 North 239 275 3,400 -1,800 Descending FlightAware ADS-B
10:34PM 39.8827 -74.9065 North 237 273 3,300 -900 Descending FlightAware ADS-B
10:34PM 39.8867 -74.9070 355° North 235 270 3,300 -900 Level FlightAware ADS-B
10:34PM 39.8904 -74.9080 348° North 235 270 3,200 -600 Descending FlightAware ADS-B
10:35PM 39.8975 -74.9106 344° North 232 267 3,200  Level FlightAware ADS-B
10:35PM 39.9123 -74.9174 341° North 221 254 3,200  Level FlightAware ADS-B
10:35PM 39.9180 -74.9204 338° Northwest 205 236 3,200  Level FlightAware ADS-B
10:35PM 39.9207 -74.9221 334° Northwest 197 227 3,200  Level FlightAware ADS-B
10:35PM 39.9235 -74.9247 325° Northwest 187 215 3,200  Level FlightAware ADS-B
10:35PM 39.9256 -74.9275 314° West 180 207 3,200  Level FlightAware ADS-B
10:35PM 39.9281 -74.9318 307° West 169 194 3,200  Level FlightAware ADS-B
10:35PM 39.9292 -74.9354 292° West 161 185 3,200  Level FlightAware ADS-B
10:35PM 39.9295 -74.9395 275° West 154 177 3,200  Level FlightAware ADS-B
10:35PM 39.9291 -74.9444 264° West 152 175 3,200  Level FlightAware ADS-B
10:36PM 39.9278 -74.9527 258° West 155 178 3,200  Level FlightAware ADS-B
10:36PM 39.9262 -74.9595 253° West 156 180 3,200  Level FlightAware ADS-B
10:36PM 39.9245 -74.9663 252° West 155 178 3,200  Level FlightAware ADS-B
10:36PM 39.9219 -74.9782 254° West 152 175 3,200  Level FlightAware ADS-B
10:36PM 39.9209 -74.9820 251° West 153 176 3,200  Level FlightAware ADS-B
10:36PM 39.9185 -74.9896 248° West 156 180 3,200  Level FlightAware ADS-B
10:36PM 39.9172 -74.9942 250° West 156 180 3,200  Level FlightAware ADS-B
10:37PM 39.9148 -75.0043 253° West 154 177 3,200  Level FlightAware ADS-B
10:37PM 39.9119 -75.0178 254° West 152 175 3,200  Level FlightAware ADS-B
10:37PM 39.9069 -75.0428 255° West 148 170 3,200 -240 Level FlightAware ADS-B
10:38PM 39.9035 -75.0603 256° West 133 153 3,000 -540 Descending FlightAware ADS-B
10:38PM 39.9013 -75.0710 255° West 133 153 2,900 -720 Descending FlightAware ADS-B
10:38PM 39.8996 -75.0796 256° West 131 151 2,700 -840 Descending FlightAware ADS-B
10:38PM 39.8969 -75.0933 256° West 128 147 2,500 -660 Descending FlightAware ADS-B
10:39PM 39.8943 -75.1063 255° West 122 140 2,300 -540 Descending FlightAware ADS-B
10:39PM 39.8934 -75.1107 255° West 116 133 2,300 -600 Level FlightAware ADS-B
10:39PM 39.8914 -75.1209 256° West 110 127 2,100 -600 Descending FlightAware ADS-B
10:39PM 39.8895 -75.1308 256° West 109 125 2,000 -720 Descending FlightAware ADS-B
10:40PM 39.8881 -75.1375 255° West 111 128 1,800 -600 Descending FlightAware ADS-B
10:40PM 39.8869 -75.1436 256° West 112 129 1,800 -360 Level FlightAware ADS-B
10:40PM 39.8857 -75.1498 256° West 117 135 1,700 -780 Descending FlightAware ADS-B
10:40PM 39.8849 -75.1541 256° West 119 137 1,600 -960 Descending FlightAware ADS-B
10:40PM 39.8839 -75.1589 255° West 120 138 1,500 -840 Descending FlightAware ADS-B
10:40PM 39.8818 -75.1694 255° West 114 131 1,300 -600 Descending FlightAware ADS-B
10:41PM 39.8798 -75.1795 256° West 109 125 1,200 -480 Descending FlightAware ADS-B
10:41PM 39.8786 -75.1857 256° West 110 127 1,100 -720 Descending FlightAware ADS-B
10:41PM 39.8767 -75.1954 256° West 111 128 900 -600 Descending FlightAware ADS-B
10:41PM 39.8747 -75.2057 256° West 116 133 800 -600 Descending FlightAware ADS-B
10:41PM 39.8727 -75.2159 256° West 117 135 600 -600 Descending FlightAware ADS-B
10:42PM 39.8680 -75.2380 255° West 116 133 300 -480 Descending FlightAware